Aérodrome :
LOGIN :

S'inscrire | Disclaimer

   EN    FR    IT 

 










Légende :    VFR   VFR Marginal   IFR   IFR Intensif   IFR Très Intensif
Visi : 
Plafond : 
>= 8 km
>= 3000ft
5 à 8 km
1000 à 3000 ft
1500m à 5 km
500 à 1000 ft
800 à 1500m
200 à 500 ft
< 800m
< 200 ft
Symboles :   Orages  Brouillard  Fortes neiges  Fortes précipitations  Vent > 20 kt
SIGMETs :   Divers  Orages  Givrage  Turbulence  Onde Orograph.  Cendres Volcan.







- Altitude de l'aérodrome : 102 ft
- Code IATA : CNG
- Voir les cartes d'approche


LFBG - Cognac

DERNIER METAR :
  • 141800Z AUTO 04004KT CAVOK 14/12 Q1021

METARs EXPIRÉS :
  • 141730Z AUTO 03003KT 9999 FEW038 15/12 Q1021
  • 141700Z AUTO 00000KT 9999 BKN037 16/13 Q1021
  • 141630Z AUTO 21001KT 9999 BKN035 16/13 Q1021
  • 141600Z AUTO 22003KT CAVOK 17/13 Q1021 NOSIG
  • 141530Z AUTO 21003KT CAVOK 18/13 Q1021 NOSIG

TAF TAF LFBG
Valide du 14 à 15h jusqu'au 15 à 15h UTC


141400Z 1415/1515 14008KT 9999 FEW030
TEMPO 1419/1508 4000 BR
PROB30 1421/1424 0500 BCFG
Pas de NOTAMs connus pour ce terrain.



MET'MAP, la Météo Aéronautique d'un coup d'oeil ! - Copyright ORBIFLY Décembre 2007 - Disclaimer

ORBIFLY MET'MAP TEAM :

Programmation & Développement : Alexandra Zaïnal
Conception & Développement : Baudouin d'Aumeries
Co-Programmation & Développement : Marc-Olivier Méhu
Soutien technique & logistique : Manuel Goepfert

Contact : metmap@orbifly.com




SOURCES & CREDITS :

   NOAA